Buoy 17652

sailwx.info

Track history (hours):
 
Tides and Currents Weather Stations Pressure Air Temp Water Temp Dewpoint Dewpoint Depression Visibility Wind Speed Wind Dir Waves Ship Positions

Drifting buoy 17652

Last reported at 2014-Aug-21 20:00 UTC. Time now 2014-Aug-22 00:03 UTC.
Position S 38°31' E 035°51'.

Water temperature 15.1 ° C

Date/timePositionNaut miles runAvg speedWind from/ knotsBaromVisibWave heightAir tempDewpointWater temp
2014-Aug-21 20:00S 38°31' E 035°51'4 0.6 15.1
2014-Aug-21 13:00S 38°30' E 035°46'0 0.0 15.5
2014-Aug-21 12:00S 38°30' E 035°46'0 0.0 15.6
2014-Aug-21 10:00S 38°30' E 035°46'3 0.7 15.2
2014-Aug-21 06:00S 38°32' E 035°43'0 0.0 14.8
2014-Aug-21 05:00S 38°32' E 035°43'1 0.3 14.8
2014-Aug-21 03:00S 38°32' E 035°42'2 1.5 14.8
2014-Aug-21 02:00S 38°32' E 035°40'0 0.0 14.7
2014-Aug-21 01:00S 38°32' E 035°40'0 0.0 14.8
2014-Aug-21 00:00S 38°32' E 035°40'1 0.7 14.8
2014-Aug-20 22:00S 38°32' E 035°39'2 0.5 14.8
2014-Aug-20 19:00S 38°32' E 035°37'0 0.0 14.8
2014-Aug-20 17:00S 38°32' E 035°37'5 1.3 14.9
2014-Aug-20 13:00S 38°35' E 035°32'0 0.0 14.9
2014-Aug-20 10:00S 38°35' E 035°32'2 0.3 14.9
2014-Aug-20 05:00S 38°36' E 035°30'6 0.9 14.8
2014-Aug-19 23:00S 38°38' E 035°24'0 0.0 14.8
2014-Aug-19 22:00S 38°38' E 035°24'0 0.0 14.8
2014-Aug-19 18:00S 38°38' E 035°24'2 0.9 14.8
2014-Aug-19 16:00S 38°39' E 035°21'3 1.2 14.8
2014-Aug-19 13:00S 38°40' E 035°17'4 0.6 14.7
2014-Aug-19 07:00S 38°40' E 035°13'2 1.1 14.7
2014-Aug-19 05:00S 38°40' E 035°10'0 0.2 14.7
2014-Aug-19 02:00S 38°40' E 035°09'3 2.6 14.7
2014-Aug-19 01:00S 38°40' E 035°06'0 0.0 14.7
2014-Aug-19 00:00S 38°40' E 035°06'0 0.0 14.6
2014-Aug-18 23:00S 38°40' E 035°06'0 0.0 14.7
2014-Aug-18 21:00S 38°40' E 035°06'4 1.4 14.7
2014-Aug-18 18:00S 38°41' E 035°01'1 0.2 14.7
2014-Aug-18 15:00S 38°41' E 034°60'2 0.9 14.7
2014-Aug-18 13:00S 38°42' E 034°58'9 1.2 14.7
2014-Aug-18 06:00S 38°45' E 034°47'0 0.0 14.5
2014-Aug-18 03:00S 38°45' E 034°47'6 6.5 14.4
2014-Aug-18 02:00S 38°46' E 034°39'4 0.7 14.3
2014-Aug-17 21:00S 38°48' E 034°35'0 0.0 14.2
2014-Aug-17 20:00S 38°48' E 034°35'2 0.9 14.0
2014-Aug-17 18:00S 38°49' E 034°33'4 3.9 14.1
2014-Aug-17 17:00S 38°50' E 034°28'2 1.0 14.1
2014-Aug-17 15:00S 38°51' E 034°26'0 0.0 14.1
2014-Aug-17 14:00S 38°51' E 034°26'16 2.0 14.1
2014-Aug-17 06:00S 38°55' E 034°06'6 1.1 13.7
2014-Aug-17 01:00S 38°57' E 033°59'2 0.6 13.6
2014-Aug-16 22:00S 38°58' E 033°57'7 1.0 13.7
2014-Aug-16 15:00S 38°58' E 033°48'4 3.9 13.7
2014-Aug-16 14:00S 38°59' E 033°43'10 1.3 13.7
2014-Aug-16 06:00S 39°00' E 033°30'3 1.0 13.6
2014-Aug-16 03:00S 39°01' E 033°26'14 2.8 13.6
2014-Aug-15 22:00S 39°08' E 033°10'0 0.0 13.6
2014-Aug-15 21:00S 39°08' E 033°10'0 0.0 13.6
2014-Aug-15 19:00S 39°08' E 033°10'4 1.1 13.6
2014-Aug-15 15:00S 39°10' E 033°06'3 2.9 13.6
2014-Aug-15 14:00S 39°12' E 033°03'18 0.9 13.7
2014-Aug-14 19:00S 39°27' E 032°52'10 2.0 13.6
2014-Aug-14 14:00S 39°36' E 032°45'0 0.0 13.6
2014-Aug-14 12:00S 39°36' E 032°45'0 0.0 13.7
2014-Aug-14 10:00S 39°36' E 032°45'0 0.0 13.8
2014-Aug-14 09:00S 39°36' E 032°45'6 2.1 13.8
2014-Aug-14 06:00S 39°39' E 032°38'0 0.0 14.0
2014-Aug-14 05:00S 39°39' E 032°38'0 0.0 14.0
2014-Aug-14 04:00S 39°39' E 032°38'0 0.0 14.1
2014-Aug-14 02:00S 39°39' E 032°38'6 3.1 14.1
2014-Aug-14 00:00S 39°43' E 032°32'0 0.0 14.1
2014-Aug-13 23:00S 39°43' E 032°32'0 0.0 14.2
2014-Aug-13 21:00S 39°43' E 032°32'7 3.4 14.4
2014-Aug-13 19:00S 39°47' E 032°25'0 0.0 14.4
2014-Aug-13 18:00S 39°47' E 032°25'0 0.0 14.4
2014-Aug-13 16:00S 39°47' E 032°25'1 0.2 14.6
2014-Aug-13 12:00S 39°47' E 032°25'12 1.3 14.7
2014-Aug-13 03:00S 39°54' E 032°12'0 0.0 14.6
2014-Aug-13 02:00S 39°54' E 032°12'0 0.0 14.6
2014-Aug-13 01:00S 39°54' E 032°12'1 1.0 14.6
2014-Aug-13 00:00S 39°55' E 032°11'6 3.0 14.6
2014-Aug-12 22:00S 39°59' E 032°05'0 0.0 14.6
2014-Aug-12 20:00S 39°59' E 032°05'0 0.0 14.7
2014-Aug-12 18:00S 39°59' E 032°05'6 1.4 14.7
2014-Aug-12 14:00S 40°00' E 031°58'0 0.0 14.7
2014-Aug-12 13:00S 40°00' E 031°58'6 1.0 14.7
2014-Aug-12 07:00S 40°04' E 031°51'0 0.0 14.6
2014-Aug-12 06:00S 40°04' E 031°51'2 1.5 14.6
2014-Aug-12 05:00S 40°04' E 031°49'1 0.5 14.6
2014-Aug-12 02:00S 40°05' E 031°48'2 1.0 14.6
2014-Aug-12 00:00S 40°06' E 031°45'3 1.7 14.6
2014-Aug-11 22:00S 40°07' E 031°41'   14.7
Track history (hours):
 
Tides and Currents Weather Stations Pressure Air Temp Water Temp Dewpoint Dewpoint Depression Visibility Wind Speed Wind Dir Waves Ship Positions

Drifting buoy 17652

Last reported at 2014-Aug-21 20:00 UTC. Time now 2014-Aug-22 00:03 UTC.
Position S 38°31' E 035°51'.

Water temperature 15.1 ° C

Date/timePositionNaut miles runAvg speedWind from/ knotsBaromVisibWave heightAir tempDewpointWater temp
2014-Aug-21 20:00S 38°31' E 035°51'4 0.6 15.1
2014-Aug-21 13:00S 38°30' E 035°46'0 0.0 15.5
2014-Aug-21 12:00S 38°30' E 035°46'0 0.0 15.6
2014-Aug-21 10:00S 38°30' E 035°46'3 0.7 15.2
2014-Aug-21 06:00S 38°32' E 035°43'0 0.0 14.8
2014-Aug-21 05:00S 38°32' E 035°43'1 0.3 14.8
2014-Aug-21 03:00S 38°32' E 035°42'2 1.5 14.8
2014-Aug-21 02:00S 38°32' E 035°40'0 0.0 14.7
2014-Aug-21 01:00S 38°32' E 035°40'0 0.0 14.8
2014-Aug-21 00:00S 38°32' E 035°40'1 0.7 14.8
2014-Aug-20 22:00S 38°32' E 035°39'2 0.5 14.8
2014-Aug-20 19:00S 38°32' E 035°37'0 0.0 14.8
2014-Aug-20 17:00S 38°32' E 035°37'5 1.3 14.9
2014-Aug-20 13:00S 38°35' E 035°32'0 0.0 14.9
2014-Aug-20 10:00S 38°35' E 035°32'2 0.3 14.9
2014-Aug-20 05:00S 38°36' E 035°30'6 0.9 14.8
2014-Aug-19 23:00S 38°38' E 035°24'0 0.0 14.8
2014-Aug-19 22:00S 38°38' E 035°24'0 0.0 14.8
2014-Aug-19 18:00S 38°38' E 035°24'2 0.9 14.8
2014-Aug-19 16:00S 38°39' E 035°21'3 1.2 14.8
2014-Aug-19 13:00S 38°40' E 035°17'4 0.6 14.7
2014-Aug-19 07:00S 38°40' E 035°13'2 1.1 14.7
2014-Aug-19 05:00S 38°40' E 035°10'0 0.2 14.7
2014-Aug-19 02:00S 38°40' E 035°09'3 2.6 14.7
2014-Aug-19 01:00S 38°40' E 035°06'0 0.0 14.7
2014-Aug-19 00:00S 38°40' E 035°06'0 0.0 14.6
2014-Aug-18 23:00S 38°40' E 035°06'0 0.0 14.7
2014-Aug-18 21:00S 38°40' E 035°06'4 1.4 14.7
2014-Aug-18 18:00S 38°41' E 035°01'1 0.2 14.7
2014-Aug-18 15:00S 38°41' E 034°60'2 0.9 14.7
2014-Aug-18 13:00S 38°42' E 034°58'9 1.2 14.7
2014-Aug-18 06:00S 38°45' E 034°47'0 0.0 14.5
2014-Aug-18 03:00S 38°45' E 034°47'6 6.5 14.4
2014-Aug-18 02:00S 38°46' E 034°39'4 0.7 14.3
2014-Aug-17 21:00S 38°48' E 034°35'0 0.0 14.2
2014-Aug-17 20:00S 38°48' E 034°35'2 0.9 14.0
2014-Aug-17 18:00S 38°49' E 034°33'4 3.9 14.1
2014-Aug-17 17:00S 38°50' E 034°28'2 1.0 14.1
2014-Aug-17 15:00S 38°51' E 034°26'0 0.0 14.1
2014-Aug-17 14:00S 38°51' E 034°26'16 2.0 14.1
2014-Aug-17 06:00S 38°55' E 034°06'6 1.1 13.7
2014-Aug-17 01:00S 38°57' E 033°59'2 0.6 13.6
2014-Aug-16 22:00S 38°58' E 033°57'7 1.0 13.7
2014-Aug-16 15:00S 38°58' E 033°48'4 3.9 13.7
2014-Aug-16 14:00S 38°59' E 033°43'10 1.3 13.7
2014-Aug-16 06:00S 39°00' E 033°30'3 1.0 13.6
2014-Aug-16 03:00S 39°01' E 033°26'14 2.8 13.6
2014-Aug-15 22:00S 39°08' E 033°10'0 0.0 13.6
2014-Aug-15 21:00S 39°08' E 033°10'0 0.0 13.6
2014-Aug-15 19:00S 39°08' E 033°10'4 1.1 13.6
2014-Aug-15 15:00S 39°10' E 033°06'3 2.9 13.6
2014-Aug-15 14:00S 39°12' E 033°03'18 0.9 13.7
2014-Aug-14 19:00S 39°27' E 032°52'10 2.0 13.6
2014-Aug-14 14:00S 39°36' E 032°45'0 0.0 13.6
2014-Aug-14 12:00S 39°36' E 032°45'0 0.0 13.7
2014-Aug-14 10:00S 39°36' E 032°45'0 0.0 13.8
2014-Aug-14 09:00S 39°36' E 032°45'6 2.1 13.8
2014-Aug-14 06:00S 39°39' E 032°38'0 0.0 14.0
2014-Aug-14 05:00S 39°39' E 032°38'0 0.0 14.0
2014-Aug-14 04:00S 39°39' E 032°38'0 0.0 14.1
2014-Aug-14 02:00S 39°39' E 032°38'6 3.1 14.1
2014-Aug-14 00:00S 39°43' E 032°32'0 0.0 14.1
2014-Aug-13 23:00S 39°43' E 032°32'0 0.0 14.2
2014-Aug-13 21:00S 39°43' E 032°32'7 3.4 14.4
2014-Aug-13 19:00S 39°47' E 032°25'0 0.0 14.4
2014-Aug-13 18:00S 39°47' E 032°25'0 0.0 14.4
2014-Aug-13 16:00S 39°47' E 032°25'1 0.2 14.6
2014-Aug-13 12:00S 39°47' E 032°25'12 1.3 14.7
2014-Aug-13 03:00S 39°54' E 032°12'0 0.0 14.6
2014-Aug-13 02:00S 39°54' E 032°12'0 0.0 14.6
2014-Aug-13 01:00S 39°54' E 032°12'1 1.0 14.6
2014-Aug-13 00:00S 39°55' E 032°11'6 3.0 14.6
2014-Aug-12 22:00S 39°59' E 032°05'0 0.0 14.6
2014-Aug-12 20:00S 39°59' E 032°05'0 0.0 14.7
2014-Aug-12 18:00S 39°59' E 032°05'6 1.4 14.7
2014-Aug-12 14:00S 40°00' E 031°58'0 0.0 14.7
2014-Aug-12 13:00S 40°00' E 031°58'6 1.0 14.7
2014-Aug-12 07:00S 40°04' E 031°51'0 0.0 14.6
2014-Aug-12 06:00S 40°04' E 031°51'2 1.5 14.6
2014-Aug-12 05:00S 40°04' E 031°49'1 0.5 14.6
2014-Aug-12 02:00S 40°05' E 031°48'2 1.0 14.6
2014-Aug-12 00:00S 40°06' E 031°45'3 1.7 14.6
2014-Aug-11 22:00S 40°07' E 031°41'   14.7

Dump ship's entire track history